Terminal Aerodrome Forecast
Issued by NWS Twin Cities, MN

Home | Current Version | Previous Version | Graphics & Text | Print | Product List | Glossary On
Versions: 1 2 3 4 5 6 7 8 9 10 11 12 13 14 15
000
FTUS43 KMPX 230520
TAFSTC
TAF
KSTC 230520Z 2306/2406 33010KT P6SM SCT030 BKN060
     FM230800 33004KT P6SM SCT020 BKN040
     FM231000 36008KT P6SM VCSH SCT012 OVC020
     FM231900 36008KT P6SM VCSH SCT020 BKN040
     FM240000 01006KT P6SM BKN040=

USA.gov is the U.S. government's official web portal to all federal, state and local government web resources and services.